Ithaca Tompkins Regional Airport
KITH : now visible

Airfield :











YOU CAN JOIN US ON...

 
LOGIN :

Register | Disclaimer

   EN    FR    IT 

 









Legend :    VFR   Marginal VFR   IFR   Intensive IFR   Very Intensive IFR
Visi :
Ceiling :
>= 8 km
>= 3000ft
5 to 8 km
1000 to 3000 ft
1500m to 5 km
500 to 1000 ft
800 to 1500m
200 to 500 ft
< 800m
< 200 ft
Symbols :   Thunderstorms  Fog  Heavy snow  Heavy precipitations  Wind > 20 kt







- Airport Elevation : 1099 ft
- IATA code : ITH


KITH - Ithaca Tompkins Regional

CURRENT METAR :
  • 162156Z 30008KT 10SM SCT035 BKN120 20/13 A3009 RMK AO2 SLP186 T02000128

EXPIRED METARs :
  • 162056Z 30010KT 10SM BKN033 21/13 A3009 RMK AO2 SLP186 T02060133 56006
  • 161956Z 29008KT 10SM BKN028 21/16 A3009 RMK AO2 SLP186 T02110156

TAF KITH
Valid from the 16 at 18:00 until the 17 at 18:00 UTC


161736Z 1618/1718 03005KT P6SM BKN018
FM161900 VRB02KT P6SM FEW035
FM171600 35006KT P6SM SKC
No reported NOTAMs for that airfield.



MET'MAP, your aeronautical weather chart ! - Copyright ORBIFLY December 2007 - Disclaimer

ORBIFLY MET'MAP TEAM :

Programming & Development : Alexandra Zaïnal
Concept & Development : Baudouin d'Aumeries
Co-Development & Prog : Marc-Olivier Méhu
Technical & hardware support : Manuel Goepfert

Contact : metmap@orbifly.com




SOURCES & CREDITS :

   NOAA       Earth
Advisory